Time;durP1;ratioP1;P1;durP2;ratioP2;P2;SDS_P1;SDS_P2;PMS_P1;PMS_P2;Temp;Humidity;BMP_temperature;BMP_pressure;BME280_temperature;BME280_humidity;BME280_pressure;Samples;Min_cycle;Max_cycle;Signal;HPM_P1;HPM_P2
2022/04/01 00:02:25;;;;;;;20.67;8.02;;;;;;;11.85;64.04;99566.50;5015289;28;102183;-51
2022/04/01 00:04:52;;;;;;;19.17;7.93;;;;;;;11.85;64.02;99577.41;5013676;28;103966;-51
2022/04/01 00:07:19;;;;;;;21.85;8.55;;;;;;;11.85;63.81;99571.94;5006373;28;102375;-51
2022/04/01 00:09:46;;;;;;;25.00;8.40;;;;;;;11.85;63.82;99589.09;5013886;28;102399;-51
2022/04/01 00:12:13;;;;;;;23.17;8.88;;;;;;;11.85;63.93;99588.31;5014175;28;102526;-51
2022/04/01 00:14:41;;;;;;;16.13;8.30;;;;;;;11.85;64.01;99594.56;5013402;28;104027;-51
2022/04/01 00:17:09;;;;;;;20.35;8.52;;;;;;;11.84;63.87;99592.94;5014095;28;102422;-51
2022/04/01 00:19:38;;;;;;;22.50;7.87;;;;;;;11.85;63.95;99594.56;5012590;28;102756;-51
2022/04/01 00:22:06;;;;;;;21.37;8.20;;;;;;;11.85;64.04;99593.75;4999806;28;102283;-51
2022/04/01 00:24:35;;;;;;;20.13;8.35;;;;;;;11.84;64.08;99575.78;5007815;28;104037;-51
2022/04/01 00:27:02;;;;;;;24.08;8.35;;;;;;;11.84;64.05;99570.34;5013476;28;102964;-51
2022/04/01 00:29:30;;;;;;;23.33;7.72;;;;;;;11.85;64.29;99566.50;5013609;28;102555;-52
2022/04/01 00:32:00;;;;;;;26.10;8.90;;;;;;;11.84;64.38;99564.88;5014204;28;102080;-51
2022/04/01 00:34:27;;;;;;;20.15;7.85;;;;;;;11.84;64.13;99552.06;5012792;28;103884;-51
2022/04/01 00:36:58;;;;;;;23.55;8.32;;;;;;;11.85;64.08;99541.97;5013922;28;102378;-51
2022/04/01 00:39:26;;;;;;;26.48;8.32;;;;;;;11.84;63.85;99548.53;5012045;28;102058;-51
2022/04/01 00:41:53;;;;;;;20.60;7.85;;;;;;;11.84;63.91;99553.97;5013944;28;102499;-51
2022/04/01 00:44:22;;;;;;;16.42;7.28;;;;;;;11.85;63.86;99555.59;5008525;28;103871;-51
2022/04/01 00:46:52;;;;;;;20.73;8.05;;;;;;;11.85;64.19;99561.03;5005320;28;102580;-51
2022/04/01 00:49:19;;;;;;;18.55;7.60;;;;;;;11.84;64.03;99548.53;4998633;28;102314;-51
2022/04/01 00:51:48;;;;;;;16.48;7.30;;;;;;;11.83;63.88;99544.97;4999098;28;102385;-51
2022/04/01 00:54:17;;;;;;;24.35;7.88;;;;;;;11.83;64.09;99553.16;4993451;28;103785;-51
2022/04/01 00:56:46;;;;;;;21.23;7.93;;;;;;;11.84;64.16;99559.44;4993100;28;103187;-51
2022/04/01 00:59:13;;;;;;;17.88;7.97;;;;;;;11.83;63.76;99557.78;5001296;28;101941;-51
2022/04/01 01:01:41;;;;;;;18.17;7.80;;;;;;;11.84;63.79;99553.97;5012543;28;102247;-51
2022/04/01 01:04:13;;;;;;;23.63;8.37;;;;;;;11.84;63.85;99564.88;5011462;28;103859;-51
2022/04/01 01:06:43;;;;;;;16.08;7.20;;;;;;;11.84;63.94;99545.81;5012658;28;102102;-51
2022/04/01 01:09:13;;;;;;;20.33;8.05;;;;;;;11.84;63.83;99543.88;5013780;28;102123;-51
2022/04/01 01:11:43;;;;;;;19.17;7.75;;;;;;;11.83;64.14;99544.13;5013871;28;102393;-51
2022/04/01 01:14:11;;;;;;;20.92;7.32;;;;;;;11.84;64.11;99540.34;5013099;28;104152;-51
2022/04/01 01:16:41;;;;;;;18.33;8.10;;;;;;;11.84;64.16;99543.06;5012650;28;102299;-51
2022/04/01 01:19:10;;;;;;;18.33;7.03;;;;;;;11.83;63.81;99536.78;5011578;28;102391;-51
2022/04/01 01:21:38;;;;;;;19.60;7.88;;;;;;;11.84;63.96;99532.19;5013356;28;102335;-51
2022/04/01 01:24:08;;;;;;;16.90;7.82;;;;;;;11.83;63.83;99514.16;5011542;28;104109;-51
2022/04/01 01:26:36;;;;;;;16.65;7.82;;;;;;;11.84;63.71;99515.81;5012896;28;102166;-52
2022/04/01 01:29:06;;;;;;;17.25;8.45;;;;;;;11.83;64.05;99512.25;5013001;28;102150;-52
2022/04/01 01:31:33;;;;;;;23.08;7.07;;;;;;;11.84;64.09;99526.72;5013741;28;102612;-54
2022/04/01 01:34:00;;;;;;;18.50;8.10;;;;;;;11.84;63.60;99524.00;5012714;28;104205;-51
2022/04/01 01:36:28;;;;;;;15.90;7.57;;;;;;;11.85;63.95;99522.88;5011384;28;102408;-51
2022/04/01 01:38:56;;;;;;;16.80;7.47;;;;;;;11.84;63.77;99524.00;5012365;28;102540;-51
2022/04/01 01:41:22;;;;;;;17.65;7.70;;;;;;;11.84;63.87;99519.34;5013140;28;102395;-51
2022/04/01 01:43:50;;;;;;;15.60;6.93;;;;;;;11.85;63.90;99517.41;5013843;28;103820;-51
2022/04/01 01:46:18;;;;;;;13.93;6.80;;;;;;;11.85;64.10;99514.69;5012556;28;102625;-52
2022/04/01 01:48:44;;;;;;;14.18;6.78;;;;;;;11.84;63.81;99513.91;5014472;28;102221;-51
2022/04/01 01:56:45;;;;;;;15.05;7.32;;;;;;;11.84;64.13;99521.28;5012938;28;101913;-51
2022/04/01 01:59:13;;;;;;;17.00;7.35;;;;;;;11.85;63.55;99514.69;5012099;28;102345;-51
2022/04/01 02:01:40;;;;;;;15.17;7.00;;;;;;;11.84;63.86;99504.91;4994431;28;102392;-51
2022/04/01 02:04:07;;;;;;;17.98;7.50;;;;;;;11.85;63.75;99506.53;4992320;28;103816;-51
2022/04/01 02:06:34;;;;;;;17.20;7.22;;;;;;;11.84;63.81;99499.47;4992053;28;102430;-51
2022/04/01 02:09:01;;;;;;;17.08;7.22;;;;;;;11.84;63.69;99489.38;5003536;28;101954;-51
2022/04/01 02:11:28;;;;;;;18.48;7.38;;;;;;;11.83;63.68;99485.00;5013396;28;102410;-51
2022/04/01 02:13:54;;;;;;;17.90;6.95;;;;;;;11.84;64.02;99481.19;5012736;28;103013;-51
2022/04/01 02:16:34;;;;;;;14.82;7.30;;;;;;;11.84;63.96;99461.31;5007292;28;102682;-51
2022/04/01 02:19:01;;;;;;;18.55;7.18;;;;;;;11.85;63.67;99462.91;4992491;28;102460;-51
2022/04/01 02:21:29;;;;;;;14.80;7.47;;;;;;;11.84;63.98;99472.19;5007582;28;102353;-51
2022/04/01 02:23:56;;;;;;;13.52;6.85;;;;;;;11.83;63.81;99474.09;5012177;28;103852;-50
2022/04/01 02:26:23;;;;;;;15.00;6.72;;;;;;;11.83;63.66;99474.09;5011329;28;102557;-51
2022/04/01 02:28:49;;;;;;;15.52;7.78;;;;;;;11.85;63.51;99476.53;5012222;28;101992;-51
2022/04/01 02:31:18;;;;;;;15.55;7.50;;;;;;;11.83;63.94;99476.81;5012537;28;102225;-51
2022/04/01 02:33:46;;;;;;;18.40;6.88;;;;;;;11.84;63.89;99474.94;5010048;28;104154;-51
2022/04/01 02:36:17;;;;;;;16.92;7.55;;;;;;;11.83;63.74;99482.28;5006855;28;101910;-51
2022/04/01 02:38:44;;;;;;;16.00;7.60;;;;;;;11.84;63.68;99483.09;4991866;28;102311;-51
2022/04/01 02:41:14;;;;;;;16.25;7.43;;;;;;;11.83;63.91;99479.56;4993141;28;101963;-51
2022/04/01 02:43:41;;;;;;;15.73;7.38;;;;;;;11.83;63.97;99459.63;4992180;28;103910;-51
2022/04/01 02:46:10;;;;;;;19.05;7.10;;;;;;;11.83;64.18;99470.53;4991628;28;102499;-51
2022/04/01 02:48:36;;;;;;;18.10;7.35;;;;;;;11.83;63.70;99467.81;4992068;28;102373;-51
2022/04/01 02:51:04;;;;;;;19.88;7.82;;;;;;;11.83;64.08;99486.91;4997505;28;102123;-51
2022/04/01 02:53:31;;;;;;;15.68;7.43;;;;;;;11.83;63.83;99478.72;4990939;28;104022;-51
2022/04/01 02:55:57;;;;;;;15.60;7.40;;;;;;;11.82;63.88;99474.38;4991832;28;101955;-51
2022/04/01 02:58:24;;;;;;;15.10;7.70;;;;;;;11.83;63.88;99476.81;4990764;28;101754;-51
2022/04/01 03:00:50;;;;;;;13.90;7.15;;;;;;;11.82;64.38;99485.28;5010492;28;102452;-51
2022/04/01 03:03:16;;;;;;;16.55;6.95;;;;;;;11.82;63.90;99498.94;5011384;28;103928;-52
2022/04/01 03:05:43;;;;;;;21.77;7.20;;;;;;;11.81;63.82;99495.41;5011534;28;101916;-51
2022/04/01 03:08:11;;;;;;;20.42;8.13;;;;;;;11.81;64.13;99509.03;5006789;28;102934;-51
2022/04/01 03:10:39;;;;;;;19.75;7.28;;;;;;;11.82;63.61;99496.19;5010927;28;101986;-51
2022/04/01 03:13:10;;;;;;;15.80;7.50;;;;;;;11.81;63.72;99491.88;5010809;28;103935;-51
2022/04/01 03:15:37;;;;;;;17.23;7.65;;;;;;;11.80;64.05;99499.25;5011213;28;101922;-51
2022/04/01 03:18:04;;;;;;;15.63;7.22;;;;;;;11.81;64.02;99483.69;5009187;28;101865;-51
2022/04/01 03:20:35;;;;;;;16.95;7.30;;;;;;;11.81;64.15;99483.69;5010617;28;102880;-51
2022/04/01 03:23:16;;;;;;;17.75;7.32;;;;;;;11.78;63.87;99475.00;5010587;28;103922;-51
2022/04/01 03:25:44;;;;;;;23.45;7.75;;;;;;;11.79;64.21;99468.47;5011612;28;102511;-51
2022/04/01 03:28:13;;;;;;;16.13;8.13;;;;;;;11.79;64.08;99482.09;5010554;28;102275;-51
2022/04/01 03:30:39;;;;;;;20.27;8.15;;;;;;;11.79;63.75;99482.09;5012286;28;101982;-51
2022/04/01 03:33:06;;;;;;;19.20;8.00;;;;;;;11.79;63.97;99482.09;5008528;28;103693;-52
2022/04/01 03:35:34;;;;;;;15.45;7.78;;;;;;;11.78;64.03;99479.66;5011525;28;102381;-51
2022/04/01 03:38:00;;;;;;;17.23;7.30;;;;;;;11.79;63.93;99471.19;5007516;28;102628;-51
2022/04/01 03:40:29;;;;;;;19.17;7.57;;;;;;;11.77;63.80;99473.41;5011052;28;102090;-51
2022/04/01 03:42:55;;;;;;;13.00;7.75;;;;;;;11.79;63.77;99489.44;5009956;28;103883;-52
2022/04/01 03:45:22;;;;;;;19.00;7.55;;;;;;;11.77;63.90;99495.22;5011720;28;101928;-52
2022/04/01 03:47:57;;;;;;;18.80;7.65;;;;;;;11.79;63.97;99492.16;5007785;28;102407;-51
2022/04/01 03:50:29;;;;;;;15.43;7.30;;;;;;;11.79;64.15;99513.97;4995484;28;102011;-51
2022/04/01 03:53:01;;;;;;;17.52;7.15;;;;;;;11.79;63.71;99519.41;5009639;28;103917;-51
2022/04/01 03:55:35;;;;;;;17.92;7.35;;;;;;;11.78;63.93;99524.06;5011582;28;102426;-52
2022/04/01 03:58:05;;;;;;;20.70;8.65;;;;;;;11.78;63.92;99520.53;5010427;28;102499;-51
2022/04/01 04:00:32;;;;;;;20.33;7.88;;;;;;;11.79;63.98;99531.16;5010490;28;102132;-51
2022/04/01 04:03:06;;;;;;;18.83;7.35;;;;;;;11.81;64.32;99532.75;5008824;28;103987;-51
2022/04/01 04:05:34;;;;;;;18.58;7.80;;;;;;;11.79;63.83;99514.81;5001952;28;102151;-51
2022/04/01 04:08:01;;;;;;;18.40;7.97;;;;;;;11.79;63.91;99509.34;4995695;28;101953;-51
2022/04/01 04:10:30;;;;;;;25.58;8.70;;;;;;;11.78;64.08;99520.53;5008694;28;102115;-51
2022/04/01 04:12:59;;;;;;;18.27;7.75;;;;;;;11.79;63.87;99525.69;5012959;28;103939;-51
2022/04/01 04:15:28;;;;;;;23.48;7.75;;;;;;;11.80;63.99;99512.88;5014410;28;101961;-51
2022/04/01 04:18:01;;;;;;;18.08;7.22;;;;;;;11.78;63.99;99513.16;5013483;28;102303;-51
2022/04/01 04:20:34;;;;;;;17.00;7.18;;;;;;;11.79;64.21;99516.69;5015399;28;102107;-52
2022/04/01 04:23:08;;;;;;;17.08;8.23;;;;;;;11.80;64.00;99526.50;5009217;28;104036;-54
2022/04/01 04:25:36;;;;;;;16.10;8.30;;;;;;;11.79;63.99;99528.44;5014479;28;102395;-51
2022/04/01 04:28:09;;;;;;;17.50;7.63;;;;;;;11.80;63.95;99537.41;5012942;28;101790;-51
2022/04/01 04:30:45;;;;;;;18.60;7.28;;;;;;;11.81;63.88;99532.75;5012852;28;102685;-51
2022/04/01 04:33:12;;;;;;;19.45;7.72;;;;;;;11.79;63.96;99524.88;5013485;28;103885;-51
2022/04/01 04:35:40;;;;;;;18.88;8.02;;;;;;;11.81;63.88;99516.41;5012493;28;102605;-51
2022/04/01 04:38:08;;;;;;;15.73;7.65;;;;;;;11.79;63.93;99514.81;5012381;28;102579;-51
2022/04/01 04:40:35;;;;;;;14.50;7.35;;;;;;;11.81;63.93;99513.69;5010722;28;104211;-51
2022/04/01 04:43:03;;;;;;;17.65;7.47;;;;;;;11.82;63.87;99518.00;5012889;28;103991;-52
2022/04/01 04:45:31;;;;;;;19.55;8.93;;;;;;;11.81;63.96;99510.94;5013989;28;102003;-52
2022/04/01 04:47:58;;;;;;;21.67;7.45;;;;;;;11.81;64.02;99505.50;5012831;28;102371;-52
2022/04/01 04:50:24;;;;;;;23.13;8.15;;;;;;;11.82;63.96;99510.63;5010479;28;102627;-51
2022/04/01 04:52:53;;;;;;;20.27;8.23;;;;;;;11.82;63.84;99520.72;4993912;28;103936;-52
2022/04/01 04:55:22;;;;;;;21.30;8.25;;;;;;;11.82;63.92;99512.56;4994350;28;101890;-51
2022/04/01 04:57:50;;;;;;;19.77;6.95;;;;;;;11.82;64.10;99507.09;5008793;28;102527;-51
2022/04/01 05:00:19;;;;;;;17.52;7.32;;;;;;;11.83;63.90;99497.81;5008732;28;102409;-51
2022/04/01 05:03:07;;;;;;;21.98;7.50;;;;;;;11.83;63.51;99486.91;5003450;28;104026;-51
2022/04/01 05:05:39;;;;;;;23.27;7.22;;;;;;;11.82;63.73;99479.84;5013650;28;102511;-51
2022/04/01 05:08:14;;;;;;;17.73;7.57;;;;;;;11.83;63.76;99492.34;5014232;28;102615;-51
2022/04/01 05:10:47;;;;;;;18.48;6.70;;;;;;;11.83;63.83;99478.72;5014385;28;102511;-50
2022/04/01 05:13:23;;;;;;;17.67;6.88;;;;;;;11.84;63.75;99477.66;4994579;28;103948;-51
2022/04/01 05:15:53;;;;;;;15.65;6.70;;;;;;;11.85;63.69;99487.44;5000693;28;102138;-51
2022/04/01 05:18:29;;;;;;;11.80;5.75;;;;;;;11.85;63.60;99501.06;4998083;28;102764;-51
2022/04/01 05:20:59;;;;;;;16.40;6.25;;;;;;;11.87;63.75;99505.09;5005288;28;102890;-51
2022/04/01 05:23:39;;;;;;;15.48;6.00;;;;;;;11.88;63.60;99495.81;4995591;28;103893;-51
2022/04/01 05:26:11;;;;;;;16.75;6.47;;;;;;;11.89;63.55;99505.59;5011484;28;102143;-51
2022/04/01 05:28:45;;;;;;;16.45;7.22;;;;;;;11.91;63.54;99499.84;5001708;28;102178;-51
2022/04/01 05:31:18;;;;;;;19.75;6.70;;;;;;;11.92;63.65;99504.16;4996103;28;102411;-51
2022/04/01 05:33:58;;;;;;;15.68;6.57;;;;;;;11.93;63.51;99503.84;5012456;28;104108;-51
2022/04/01 05:36:25;;;;;;;16.88;6.95;;;;;;;11.94;63.54;99493.78;5012752;28;102476;-51
2022/04/01 05:38:54;;;;;;;17.17;6.60;;;;;;;11.95;63.24;99487.19;5012452;28;102210;-51
2022/04/01 05:41:21;;;;;;;18.77;7.30;;;;;;;11.97;63.51;99504.03;5012891;28;102083;-51
2022/04/01 05:43:50;;;;;;;19.13;7.18;;;;;;;11.99;63.49;99507.25;5007013;28;103837;-51
2022/04/01 05:46:19;;;;;;;25.55;7.80;;;;;;;12.01;63.39;99505.03;4995904;28;101821;-51
2022/04/01 05:48:49;;;;;;;22.83;7.03;;;;;;;12.02;63.68;99504.72;4992688;28;101922;-51
2022/04/01 05:51:18;;;;;;;14.50;6.50;;;;;;;12.03;63.15;99491.88;5004402;28;102035;-51
2022/04/01 05:53:47;;;;;;;27.63;7.00;;;;;;;12.04;63.46;99490.75;5011995;28;103953;-51
2022/04/01 05:56:15;;;;;;;15.70;6.57;;;;;;;12.05;63.04;99499.78;5012700;28;102581;-51
2022/04/01 05:58:43;;;;;;;17.63;6.63;;;;;;;12.06;63.35;99502.19;5014829;28;101863;-51
2022/04/01 06:01:19;;;;;;;22.77;6.88;;;;;;;12.06;63.43;99488.53;5033986;27;102171;-52
2022/04/01 06:04:08;;;;;;;21.75;6.80;;;;;;;12.07;63.26;99476.50;4992281;28;104011;-52
2022/04/01 06:06:40;;;;;;;17.98;6.43;;;;;;;12.08;63.29;99475.41;4992687;28;101970;-51
2022/04/01 06:09:20;;;;;;;19.17;6.75;;;;;;;12.10;63.41;99477.81;4993179;28;102047;-51
2022/04/01 06:12:00;;;;;;;18.20;6.57;;;;;;;12.11;63.36;99487.59;5011329;28;102765;-51
2022/04/01 06:14:36;;;;;;;19.30;6.72;;;;;;;12.11;63.38;99488.41;5011821;28;104018;-51
2022/04/01 06:17:08;;;;;;;17.95;6.82;;;;;;;12.12;63.32;99492.75;5012363;28;102218;-51
2022/04/01 06:19:43;;;;;;;15.95;6.28;;;;;;;12.14;63.26;99489.72;4999621;28;101793;-51
2022/04/01 06:22:14;;;;;;;19.35;6.50;;;;;;;12.14;63.26;99482.34;5006210;28;101931;-51
2022/04/01 06:24:55;;;;;;;13.95;5.38;;;;;;;12.15;63.30;99475.78;5011582;28;103924;-52
2022/04/01 06:27:28;;;;;;;14.93;5.85;;;;;;;12.15;63.43;99473.06;4994025;28;102037;-51
2022/04/01 06:30:03;;;;;;;15.68;5.72;;;;;;;12.17;63.34;99480.91;5005933;28;102629;-51
2022/04/01 06:32:40;;;;;;;11.23;5.60;;;;;;;12.16;63.15;99473.84;5007457;28;102398;-51
2022/04/01 06:35:18;;;;;;;15.15;7.03;;;;;;;12.18;63.25;99471.59;5002826;28;104550;-50
2022/04/01 06:37:55;;;;;;;16.65;6.82;;;;;;;12.18;63.42;99471.59;4996288;28;102100;-51
2022/04/01 06:40:27;;;;;;;13.20;5.88;;;;;;;12.18;63.36;99461.50;4991435;28;101836;-51
2022/04/01 06:42:55;;;;;;;15.25;5.85;;;;;;;12.19;63.34;99470.50;5010929;28;102601;-51
2022/04/01 06:45:21;;;;;;;20.05;6.35;;;;;;;12.18;63.38;99469.69;5003214;28;104203;-51
2022/04/01 06:47:49;;;;;;;12.55;5.10;;;;;;;12.20;62.92;99480.28;4994652;28;101891;-51
2022/04/01 06:50:17;;;;;;;10.80;6.05;;;;;;;12.21;63.33;99490.88;4995452;28;102197;-51
2022/04/01 06:52:45;;;;;;;20.63;6.83;;;;;;;12.21;63.72;99488.16;4993616;28;102393;-51
2022/04/01 06:55:11;;;;;;;16.27;6.80;;;;;;;12.21;63.36;99471.78;4996528;28;103927;-51
2022/04/01 06:57:38;;;;;;;15.13;5.65;;;;;;;12.23;63.39;99485.13;5007383;28;102875;-51
2022/04/01 07:00:11;;;;;;;15.70;6.15;;;;;;;12.22;63.38;99484.28;4999849;28;102555;-51
2022/04/01 07:02:38;;;;;;;15.82;5.82;;;;;;;12.24;63.26;99486.72;4999202;28;102163;-51
2022/04/01 07:05:05;;;;;;;16.60;6.15;;;;;;;12.25;63.33;99489.13;5004911;28;103919;-51
2022/04/01 07:07:34;;;;;;;15.68;6.85;;;;;;;12.25;63.37;99489.13;5012684;28;102178;-51
2022/04/01 07:10:01;;;;;;;13.90;6.07;;;;;;;12.26;63.40;99493.50;5010991;28;102383;-51
2022/04/01 07:12:28;;;;;;;16.08;5.63;;;;;;;12.27;63.26;99491.56;5014173;28;102270;-51
2022/04/01 07:14:54;;;;;;;20.08;6.95;;;;;;;12.27;63.20;99503.28;5012009;28;104235;-51
2022/04/01 07:17:21;;;;;;;20.05;5.60;;;;;;;12.29;63.21;99499.44;5011580;28;102099;-51
2022/04/01 07:19:47;;;;;;;19.45;6.85;;;;;;;12.29;63.27;99499.44;5011846;28;101865;-51
2022/04/01 07:22:14;;;;;;;21.35;6.25;;;;;;;12.31;63.30;99505.38;5010627;28;102843;-52
2022/04/01 07:24:43;;;;;;;19.80;6.72;;;;;;;12.31;63.44;99519.03;5011087;28;103810;-52
2022/04/01 07:27:11;;;;;;;16.13;6.53;;;;;;;12.31;63.49;99519.03;4998462;28;102093;-51
2022/04/01 07:29:37;;;;;;;20.05;6.07;;;;;;;12.33;63.41;99522.22;5011926;28;101822;-51
2022/04/01 07:34:51;;;;;;;15.50;5.85;;;;;;;12.32;63.34;99509.72;5006748;28;104121;-51
2022/04/01 07:37:22;;;;;;;17.42;6.35;;;;;;;12.33;63.56;99512.13;4998085;28;102091;-51
2022/04/01 07:39:54;;;;;;;19.65;6.32;;;;;;;12.34;63.28;99502.03;4999598;28;102695;-52
2022/04/01 07:42:21;;;;;;;19.95;6.03;;;;;;;12.34;63.37;99493.84;4994097;28;104003;-51
2022/04/01 07:44:49;;;;;;;17.25;5.72;;;;;;;12.35;63.29;99492.72;4994994;28;104099;-51
2022/04/01 07:47:18;;;;;;;20.08;6.05;;;;;;;12.35;63.14;99487.28;5010151;28;102082;-51
2022/04/01 07:49:47;;;;;;;19.48;6.95;;;;;;;12.36;63.43;99483.41;5014940;28;102480;-51
2022/04/01 07:52:16;;;;;;;20.05;6.00;;;;;;;12.36;63.39;99483.41;5015085;28;102188;-51
2022/04/01 07:54:44;;;;;;;15.40;6.35;;;;;;;12.37;63.40;99490.47;4994476;28;104069;-51
2022/04/01 07:57:13;;;;;;;17.17;6.57;;;;;;;12.38;63.20;99492.09;4995018;28;102345;-51
2022/04/01 07:59:40;;;;;;;18.35;6.38;;;;;;;12.38;63.11;99497.56;4994406;28;102376;-51
2022/04/01 08:02:07;;;;;;;17.00;6.05;;;;;;;12.39;63.33;99482.78;5013398;28;102569;-51
2022/04/01 08:04:34;;;;;;;14.00;5.80;;;;;;;12.40;63.30;99476.22;5014120;28;103976;-52
2022/04/01 08:07:01;;;;;;;19.55;6.38;;;;;;;12.40;63.41;99484.41;5015184;28;101773;-52
2022/04/01 08:09:38;;;;;;;20.42;6.38;;;;;;;12.40;62.95;99477.00;5015093;28;101952;-52
2022/04/01 08:12:23;;;;;;;15.45;5.47;;;;;;;12.42;63.22;99463.06;4999961;28;102440;-52
2022/04/01 08:14:50;;;;;;;18.20;6.25;;;;;;;12.42;63.28;99458.41;5013873;28;103764;-52
2022/04/01 08:17:16;;;;;;;16.17;5.68;;;;;;;12.43;63.37;99461.94;5014694;28;102399;-51
2022/04/01 08:19:53;;;;;;;16.13;5.88;;;;;;;12.44;63.30;99458.09;5013848;28;101973;-51
2022/04/01 08:22:19;;;;;;;17.92;5.90;;;;;;;12.45;63.21;99454.25;5014623;28;102836;-52
2022/04/01 08:24:46;;;;;;;19.02;5.63;;;;;;;12.46;63.32;99472.25;5014148;28;103859;-51
2022/04/01 08:27:14;;;;;;;18.90;5.90;;;;;;;12.47;63.19;99462.91;5013987;28;102290;-52
2022/04/01 08:29:42;;;;;;;22.88;6.85;;;;;;;12.47;63.42;99446.56;5013080;28;102422;-51
2022/04/01 08:32:09;;;;;;;21.52;6.03;;;;;;;12.48;63.36;99448.19;5013887;28;102361;-51
2022/04/01 08:34:37;;;;;;;21.88;6.72;;;;;;;12.49;63.22;99455.25;5013539;28;103927;-52
2022/04/01 08:37:06;;;;;;;16.92;5.72;;;;;;;12.48;63.53;99448.19;5013137;28;102405;-51
2022/04/01 08:39:35;;;;;;;18.85;5.97;;;;;;;12.49;63.23;99444.31;5013697;28;102236;-52
2022/04/01 08:42:03;;;;;;;20.48;6.57;;;;;;;12.50;63.16;99445.94;5014343;28;102155;-51
2022/04/01 08:44:30;;;;;;;17.33;5.43;;;;;;;12.50;63.29;99432.28;5012483;28;103846;-52
2022/04/01 08:46:58;;;;;;;18.23;6.50;;;;;;;12.51;63.22;99436.63;5013531;28;102464;-52
2022/04/01 08:49:25;;;;;;;20.83;5.93;;;;;;;12.51;63.22;99431.16;5033494;27;101971;-52
2022/04/01 08:51:53;;;;;;;23.25;5.57;;;;;;;12.53;63.20;99430.84;5020136;27;102665;-51
2022/04/01 08:54:20;;;;;;;20.25;6.05;;;;;;;12.54;63.21;99424.28;5012718;28;103882;-51
2022/04/01 08:56:46;;;;;;;22.83;5.88;;;;;;;12.53;63.06;99415.28;4992679;28;102612;-51
2022/04/01 08:59:14;;;;;;;16.35;6.25;;;;;;;12.54;63.35;99418.81;4993174;28;102178;-51
2022/04/01 09:01:44;;;;;;;23.60;6.72;;;;;;;12.55;63.15;99415.78;4994710;28;102206;-52
2022/04/01 09:04:22;;;;;;;18.35;6.53;;;;;;;12.55;63.58;99413.06;4992777;28;104308;-51
2022/04/01 09:06:50;;;;;;;21.77;6.88;;;;;;;12.56;63.02;99406.47;4993281;28;102460;-51
2022/04/01 09:09:24;;;;;;;21.90;6.70;;;;;;;12.56;63.24;99406.47;5000919;28;102281;-52
2022/04/01 09:12:06;;;;;;;19.83;6.32;;;;;;;12.56;63.29;99401.00;5015198;28;102227;-52
2022/04/01 09:14:50;;;;;;;19.17;5.47;;;;;;;12.57;63.37;99399.88;5014979;27;103148;-52
2022/04/01 09:17:16;;;;;;;24.02;6.35;;;;;;;12.58;63.36;99403.41;5002269;28;102183;-51
2022/04/01 09:19:46;;;;;;;17.42;6.18;;;;;;;12.59;63.13;99388.66;4998892;28;102058;-52
2022/04/01 09:22:22;;;;;;;24.35;6.95;;;;;;;12.58;63.24;99387.03;4994234;28;102159;-51
2022/04/01 09:24:55;;;;;;;23.88;6.15;;;;;;;12.58;63.12;99382.38;5003100;28;103842;-51
2022/04/01 09:27:40;;;;;;;24.00;6.18;;;;;;;12.58;63.16;99373.38;5000475;28;101890;-52
2022/04/01 09:30:09;;;;;;;17.38;5.38;;;;;;;12.58;63.23;99382.38;5013403;28;102114;-52
2022/04/01 09:32:37;;;;;;;16.50;5.03;;;;;;;12.58;63.35;99371.47;5013148;28;102507;-52
2022/04/01 09:35:07;;;;;;;18.70;6.30;;;;;;;12.59;63.19;99373.09;5012243;28;103919;-52
2022/04/01 09:37:38;;;;;;;16.80;6.13;;;;;;;12.59;63.37;99384.00;5012532;28;102493;-51
2022/04/01 09:40:06;;;;;;;16.33;5.50;;;;;;;12.59;63.53;99386.75;5013208;28;102245;-52
2022/04/01 09:42:33;;;;;;;27.65;5.90;;;;;;;12.60;63.23;99384.81;5012992;28;102103;-51
2022/04/01 09:45:00;;;;;;;24.63;5.93;;;;;;;12.60;63.28;99388.34;5012310;28;104047;-52
2022/04/01 09:47:27;;;;;;;24.23;6.28;;;;;;;12.60;63.30;99388.34;5013171;28;102052;-52
2022/04/01 09:49:54;;;;;;;26.33;6.32;;;;;;;12.59;63.17;99389.47;5011709;28;102219;-51
2022/04/01 09:52:26;;;;;;;22.23;6.35;;;;;;;12.60;63.35;99382.88;5013267;28;101941;-52
2022/04/01 09:54:54;;;;;;;25.35;6.53;;;;;;;12.61;63.07;99387.22;5012215;28;103906;-52
2022/04/01 09:57:23;;;;;;;19.30;5.75;;;;;;;12.60;63.50;99380.16;5012410;28;101914;-52
2022/04/01 09:59:53;;;;;;;13.77;6.07;;;;;;;12.60;63.16;99374.69;5012290;28;102012;-52
2022/04/01 10:02:20;;;;;;;20.10;5.85;;;;;;;12.60;63.23;99382.88;5013286;28;102150;-52
2022/04/01 10:04:47;;;;;;;16.83;5.82;;;;;;;12.60;63.18;99374.69;5028377;28;103819;-52
2022/04/01 10:07:17;;;;;;;19.53;6.10;;;;;;;12.61;63.20;99386.41;5031757;27;102437;-52
2022/04/01 10:09:48;;;;;;;17.50;5.78;;;;;;;12.61;63.17;99387.22;5031910;27;102327;-52
2022/04/01 10:12:19;;;;;;;20.58;5.47;;;;;;;12.59;63.06;99378.56;5015538;27;102395;-52
2022/04/01 10:14:46;;;;;;;19.00;6.15;;;;;;;12.60;63.23;99374.69;5011770;28;103950;-51
2022/04/01 10:17:15;;;;;;;19.08;5.65;;;;;;;12.63;63.17;99386.91;5011794;28;102011;-51
2022/04/01 10:19:49;;;;;;;20.05;5.60;;;;;;;12.62;63.35;99379.81;5010245;28;102003;-51
2022/04/01 10:22:16;;;;;;;17.42;5.97;;;;;;;12.62;63.26;99380.66;5005419;28;102575;-50
2022/04/01 10:24:50;;;;;;;22.85;6.03;;;;;;;12.61;63.12;99364.56;5003500;28;104123;-51
2022/04/01 10:27:24;;;;;;;17.52;6.35;;;;;;;12.61;63.20;99373.56;5002631;28;102041;-51
2022/04/01 10:29:55;;;;;;;20.17;6.10;;;;;;;12.61;62.98;99364.56;5006411;28;102968;-51
2022/04/01 10:32:24;;;;;;;23.13;6.28;;;;;;;12.61;63.21;99359.91;4992956;28;102548;-51
2022/04/01 10:34:53;;;;;;;23.13;6.40;;;;;;;12.62;63.25;99355.25;4991330;28;103940;-51
2022/04/01 10:37:22;;;;;;;;;;;;;;;12.62;63.13;99361.53;5011542;28;101983;-50
2022/04/01 10:39:53;;;;;;;17.63;6.00;;;;;;;12.62;63.06;99361.53;5011090;28;102219;-51
2022/04/01 10:42:25;;;;;;;21.15;5.88;;;;;;;12.61;63.19;99368.09;5011505;28;101869;-51
2022/04/01 10:44:56;;;;;;;21.85;6.05;;;;;;;12.62;63.09;99366.16;4997033;28;103888;-51
2022/04/01 10:51:36;;;;;;;25.25;6.47;;;;;;;12.62;63.24;99361.53;5006998;28;102542;-51
2022/04/01 10:53:45;;;;;;;32.53;6.93;;;;;;;12.62;63.13;99347.91;5007130;28;104132;-51
2022/04/01 10:56:31;;;;;;;25.35;6.93;;;;;;;12.62;62.94;99331.53;4999731;28;103843;-50
2022/04/01 10:59:06;;;;;;;24.67;7.10;;;;;;;12.62;62.99;99339.72;4994076;28;102250;-51
2022/04/01 11:01:35;;;;;;;25.08;5.97;;;;;;;12.62;63.02;99350.63;5010886;28;102241;-51
2022/04/01 11:04:22;;;;;;;19.77;7.07;;;;;;;12.62;63.03;99347.91;5004553;28;102790;-51
2022/04/01 11:06:52;;;;;;;20.73;6.85;;;;;;;12.63;63.05;99340.50;4999636;28;103869;-51
2022/04/01 11:09:33;;;;;;;23.17;7.27;;;;;;;12.63;63.17;99335.84;5011210;28;102309;-51
2022/04/01 11:12:30;;;;;;;25.38;7.05;;;;;;;12.62;63.06;99339.72;5007309;28;102571;-51
2022/04/01 11:15:25;;;;;;;28.00;7.22;;;;;;;12.62;62.99;99331.53;5003780;28;102526;-51
2022/04/01 11:18:06;;;;;;;23.77;6.70;;;;;;;12.63;63.15;99333.13;4970765;28;103943;-51
2022/04/01 11:20:35;;;;;;;31.98;7.40;;;;;;;12.63;63.12;99330.38;5005161;28;102232;-51
2022/04/01 11:23:05;;;;;;;25.38;7.13;;;;;;;12.63;63.05;99319.47;4990479;28;101875;-52
2022/04/01 11:25:52;;;;;;;24.98;7.32;;;;;;;12.63;62.98;99318.66;4991708;28;102318;-51
2022/04/01 11:28:22;;;;;;;24.63;7.25;;;;;;;12.63;63.13;99311.28;4989943;28;103915;-51
2022/04/01 11:31:09;;;;;;;23.45;6.80;;;;;;;12.62;63.15;99311.59;4991468;28;102418;-51
2022/04/01 11:33:35;;;;;;;17.08;6.68;;;;;;;12.62;62.94;99309.69;5004930;28;102365;-51
2022/04/01 11:36:03;;;;;;;23.63;7.82;;;;;;;12.62;62.72;99301.50;5010949;28;102224;-51
2022/04/01 11:38:31;;;;;;;22.38;7.90;;;;;;;12.61;63.05;99305.31;5009905;28;104014;-51
2022/04/01 11:41:00;;;;;;;24.67;8.38;;;;;;;12.63;62.93;99308.56;5011032;28;102362;-51
2022/04/01 11:43:29;;;;;;;;;;;;;;;12.63;62.99;99315.94;4969939;28;102262;-51